Time;durP1;ratioP1;P1;durP2;ratioP2;P2;SDS_P1;SDS_P2;PMS_P1;PMS_P2;Temp;Humidity;BMP_temperature;BMP_pressure;BME280_temperature;BME280_humidity;BME280_pressure;Samples;Min_cycle;Max_cycle;Signal;HPM_P1;HPM_P2
2022/04/30 00:02:26;;;;;;;3.63;2.47;;;;;9.70;102195.00;;;;4910165;29;20376;-67
2022/04/30 00:05:14;;;;;;;7.07;3.27;;;;;9.60;102189.00;;;;4935607;28;20253;-68
2022/04/30 00:08:03;;;;;;;4.73;2.70;;;;;9.60;102194.00;;;;4926443;28;20278;-67
2022/04/30 00:10:50;;;;;;;3.40;2.70;;;;;9.50;102191.00;;;;4928921;28;20243;-68
2022/04/30 00:13:38;;;;;;;3.50;2.50;;;;;9.50;102204.00;;;;4931362;28;20245;-68
2022/04/30 00:16:24;;;;;;;4.53;2.77;;;;;9.40;102198.00;;;;4929542;28;20265;-69
2022/04/30 00:19:11;;;;;;;5.47;3.13;;;;;9.40;102198.00;;;;4908191;28;20315;-68
2022/04/30 00:21:59;;;;;;;4.80;3.17;;;;;9.30;102196.00;;;;4913973;28;20239;-68
2022/04/30 00:24:45;;;;;;;4.27;2.57;;;;;9.20;102191.00;;;;4909879;29;20847;-70
2022/04/30 00:27:34;;;;;;;3.30;2.57;;;;;9.30;102156.00;;;;4905589;29;20238;-69
2022/04/30 00:30:20;;;;;;;5.13;2.73;;;;;9.30;102187.00;;;;4910096;29;20286;-68
2022/04/30 00:33:09;;;;;;;6.37;3.07;;;;;9.10;102185.00;;;;4907218;29;20289;-68
2022/04/30 00:35:56;;;;;;;4.93;2.60;;;;;9.20;102184.00;;;;4904101;29;20235;-69
2022/04/30 00:38:43;;;;;;;4.33;3.00;;;;;9.00;102183.00;;;;4921446;28;20244;-69
2022/04/30 00:41:32;;;;;;;4.20;2.90;;;;;8.90;102181.00;;;;4928777;28;20309;-67
2022/04/30 00:44:19;;;;;;;5.87;2.83;;;;;9.00;102175.00;;;;4907488;29;20233;-66
2022/04/30 00:47:05;;;;;;;3.70;2.97;;;;;8.90;102176.00;;;;4903690;29;20241;-68
2022/04/30 00:49:51;;;;;;;5.50;2.73;;;;;8.90;102176.00;;;;4910187;29;20237;-68
2022/04/30 00:52:39;;;;;;;5.43;3.00;;;;;8.80;102181.00;;;;4874862;29;1061455;-66
2022/04/30 00:55:30;;;;;;;4.27;2.83;;;;;8.80;102177.00;;;;4911233;29;20923;-68
2022/04/30 00:58:21;;;;;;;5.97;3.13;;;;;8.70;102169.00;;;;4907494;29;20247;-68
2022/04/30 01:01:07;;;;;;;5.43;2.33;;;;;8.50;102177.00;;;;4903868;29;20243;-68
2022/04/30 01:03:54;;;;;;;6.97;3.07;;;;;8.50;102181.00;;;;4910492;29;20229;-69
2022/04/30 01:07:00;;;;;;;5.80;3.07;;;;;8.40;102180.00;;;;4911036;29;20788;-68
2022/04/30 01:09:48;;;;;;;6.00;3.00;;;;;8.30;102179.00;;;;4910015;29;20234;-68
2022/04/30 01:12:37;;;;;;;6.47;3.10;;;;;8.20;102173.00;;;;4910805;28;20319;-67
2022/04/30 01:15:24;;;;;;;5.23;3.10;;;;;8.10;102166.00;;;;4906179;29;20735;-67
2022/04/30 01:18:11;;;;;;;5.40;3.07;;;;;8.10;102169.00;;;;4904258;29;20245;-70
2022/04/30 01:21:03;;;;;;;4.37;3.00;;;;;8.20;102170.00;;;;4909796;29;20819;-68
2022/04/30 01:23:51;;;;;;;7.20;3.17;;;;;8.10;102166.00;;;;4910309;29;20592;-68
2022/04/30 01:26:38;;;;;;;4.27;2.93;;;;;8.00;102170.00;;;;4910432;29;20263;-67
2022/04/30 01:29:25;;;;;;;4.40;2.70;;;;;8.00;102160.00;;;;4910631;29;20229;-67
2022/04/30 01:38:20;;;;;;;7.20;2.97;;;;;7.90;102159.00;;;;4906892;29;20236;-67
2022/04/30 01:41:08;;;;;;;5.00;2.97;;;;;8.00;102152.00;;;;4910177;29;20286;-68
2022/04/30 01:43:55;;;;;;;6.40;3.00;;;;;7.90;102154.00;;;;4909142;29;20293;-69
2022/04/30 01:46:41;;;;;;;6.70;3.60;;;;;8.00;102153.00;;;;4909684;29;20297;-67
2022/04/30 01:49:27;;;;;;;4.80;3.10;;;;;7.90;102155.00;;;;4910382;29;20236;-69
2022/04/30 01:52:14;;;;;;;5.40;3.70;;;;;8.00;102149.00;;;;4919295;28;20300;-65
2022/04/30 01:55:01;;;;;;;4.93;3.27;;;;;8.00;102147.00;;;;4929109;28;20256;-68
2022/04/30 01:57:48;;;;;;;7.83;3.27;;;;;8.00;102151.00;;;;4909795;29;20237;-69
2022/04/30 02:00:35;;;;;;;4.93;2.93;;;;;8.00;102143.00;;;;4909870;29;20237;-68
2022/04/30 02:03:21;;;;;;;5.93;2.97;;;;;7.90;102143.00;;;;4909395;29;20370;-68
2022/04/30 02:06:08;;;;;;;4.53;3.07;;;;;7.90;102140.00;;;;4910107;29;20315;-67
2022/04/30 02:08:54;;;;;;;6.30;3.33;;;;;7.80;102143.00;;;;4909240;29;20289;-69
2022/04/30 02:11:41;;;;;;;4.77;3.07;;;;;7.80;102139.00;;;;4914417;28;20236;-68
2022/04/30 02:14:31;;;;;;;6.23;3.20;;;;;7.70;102139.00;;;;4928832;28;20304;-67
2022/04/30 02:17:18;;;;;;;5.23;3.10;;;;;7.70;102132.00;;;;4928311;28;20224;-69
2022/04/30 02:20:29;;;;;;;5.87;3.13;;;;;7.70;102130.00;;;;4928345;28;20288;-69
2022/04/30 02:23:16;;;;;;;9.27;4.13;;;;;7.60;102129.00;;;;4907942;28;20260;-68
2022/04/30 02:26:04;;;;;;;6.73;3.77;;;;;7.60;102130.00;;;;4928338;28;20236;-64
2022/04/30 02:28:50;;;;;;;8.30;3.57;;;;;7.60;102127.00;;;;4927736;28;20231;-69
2022/04/30 02:31:38;;;;;;;5.10;3.20;;;;;7.50;102122.00;;;;4927851;28;20384;-67
2022/04/30 02:34:25;;;;;;;8.53;3.70;;;;;7.50;102119.00;;;;4904824;29;20238;-68
2022/04/30 02:37:13;;;;;;;5.73;3.07;;;;;7.50;102126.00;;;;4905460;29;20252;-69
2022/04/30 02:40:00;;;;;;;5.77;3.83;;;;;7.50;102116.00;;;;4908832;29;20245;-68
2022/04/30 02:42:47;;;;;;;10.13;3.50;;;;;7.50;102105.00;;;;4908555;29;20249;-68
2022/04/30 02:45:35;;;;;;;5.20;3.30;;;;;7.50;102110.00;;;;4909685;29;20229;-67
2022/04/30 02:48:23;;;;;;;7.60;3.07;;;;;7.30;102111.00;;;;4903522;29;20241;-66
2022/04/30 02:51:10;;;;;;;5.23;3.40;;;;;7.40;102104.00;;;;4917266;28;20240;-69
2022/04/30 02:53:56;;;;;;;6.33;3.63;;;;;7.40;102100.00;;;;4927574;28;20737;-68
2022/04/30 02:56:42;;;;;;;5.63;3.83;;;;;7.40;102082.00;;;;4927492;28;20368;-69
2022/04/30 03:02:33;;;;;;;5.20;3.33;;;;;7.20;102098.00;;;;4904191;29;20312;-69
2022/04/30 03:05:21;;;;;;;4.70;3.27;;;;;7.20;102089.00;;;;4902924;29;20245;-69
2022/04/30 03:08:11;;;;;;;5.73;3.40;;;;;7.10;102084.00;;;;4901490;29;20770;-68
2022/04/30 03:10:58;;;;;;;5.77;3.30;;;;;7.10;102086.00;;;;4907842;29;20240;-67
2022/04/30 03:13:45;;;;;;;7.17;3.00;;;;;7.20;102082.00;;;;4905859;29;20233;-69
2022/04/30 03:22:41;;;;;;;6.83;3.43;;;;;7.10;102078.00;;;;4919333;28;20327;-68
2022/04/30 03:25:27;;;;;;;4.50;3.30;;;;;7.10;102077.00;;;;4905015;28;20233;-68
2022/04/30 03:28:14;;;;;;;6.10;3.50;;;;;7.10;102070.00;;;;4920567;28;20229;-69
2022/04/30 03:31:01;;;;;;;9.00;3.77;;;;;7.00;102060.00;;;;4926557;28;20247;-69
2022/04/30 03:33:49;;;;;;;8.97;3.07;;;;;7.00;102072.00;;;;4927246;28;20273;-68
2022/04/30 03:36:36;;;;;;;5.73;3.20;;;;;6.90;102071.00;;;;4923568;28;20734;-68
2022/04/30 03:39:23;;;;;;;4.60;3.47;;;;;6.90;102070.00;;;;4921542;28;20239;-68
2022/04/30 03:42:10;;;;;;;6.47;3.40;;;;;6.90;102069.00;;;;4909242;28;20874;-68
2022/04/30 03:44:56;;;;;;;7.00;3.30;;;;;6.80;102070.00;;;;4909066;28;20229;-68
2022/04/30 03:47:42;;;;;;;5.93;3.03;;;;;6.80;102067.00;;;;4912806;28;20742;-69
2022/04/30 03:50:29;;;;;;;4.83;3.00;;;;;6.80;102066.00;;;;4904595;29;20282;-68
2022/04/30 03:53:15;;;;;;;7.70;3.37;;;;;6.70;102070.00;;;;4922385;28;20236;-68
2022/04/30 03:56:04;;;;;;;5.83;3.43;;;;;6.70;102069.00;;;;4927018;28;20228;-68
2022/04/30 03:58:50;;;;;;;4.77;3.20;;;;;6.70;102072.00;;;;4927102;28;20241;-68
2022/04/30 04:01:38;;;;;;;7.30;3.40;;;;;6.70;102065.00;;;;4927079;28;20240;-68
2022/04/30 04:04:24;;;;;;;6.53;3.23;;;;;6.70;102075.00;;;;4902740;29;20365;-65
2022/04/30 04:07:11;;;;;;;6.57;3.70;;;;;6.60;102081.00;;;;4900995;29;20233;-68
2022/04/30 04:09:57;;;;;;;7.90;3.60;;;;;6.70;102082.00;;;;4911200;29;20675;-69
2022/04/30 04:12:45;;;;;;;6.63;3.67;;;;;6.80;102074.00;;;;4923229;28;20239;-67
2022/04/30 04:18:35;;;;;;;6.40;3.70;;;;;6.70;102086.00;;;;4911129;29;20257;-69
2022/04/30 04:21:22;;;;;;;7.23;3.53;;;;;6.80;102080.00;;;;4905121;29;20233;-68
2022/04/30 04:27:14;;;;;;;6.27;3.27;;;;;6.70;102075.00;;;;4903786;29;20823;-68
2022/04/30 04:30:07;;;;;;;6.83;3.57;;;;;6.80;102081.00;;;;4911186;29;20606;-68
2022/04/30 04:32:54;;;;;;;5.93;3.27;;;;;6.70;102083.00;;;;4930052;28;20312;-68
2022/04/30 04:35:40;;;;;;;7.13;3.53;;;;;6.80;102094.00;;;;4930438;28;20236;-69
2022/04/30 04:38:26;;;;;;;7.87;3.53;;;;;6.70;102096.00;;;;4905645;29;20293;-69
2022/04/30 04:41:13;;;;;;;7.60;4.13;;;;;6.80;102090.00;;;;4902014;29;20356;-64
2022/04/30 04:43:59;;;;;;;5.87;3.63;;;;;6.80;102085.00;;;;4928477;28;20240;-69
2022/04/30 04:46:46;;;;;;;6.67;3.70;;;;;6.90;102083.00;;;;4929912;28;20240;-68
2022/04/30 04:49:33;;;;;;;11.93;3.90;;;;;7.00;102086.00;;;;4930055;28;20284;-68
2022/04/30 04:52:19;;;;;;;9.70;3.47;;;;;7.00;102084.00;;;;4903527;29;20233;-68
2022/04/30 04:55:06;;;;;;;5.93;3.63;;;;;7.00;102086.00;;;;4910798;29;20232;-66
2022/04/30 04:57:52;;;;;;;7.50;3.57;;;;;7.10;102091.00;;;;4910665;29;20241;-70
2022/04/30 05:00:39;;;;;;;8.73;4.50;;;;;7.20;102092.00;;;;4910556;29;20355;-69
2022/04/30 05:03:26;;;;;;;6.73;4.00;;;;;7.20;102097.00;;;;4910236;29;20245;-69
2022/04/30 05:06:13;;;;;;;6.23;4.10;;;;;7.20;102104.00;;;;4902793;29;20241;-69
2022/04/30 05:08:59;;;;;;;9.77;4.83;;;;;7.30;102106.00;;;;4910420;29;20241;-69
2022/04/30 05:11:45;;;;;;;9.83;4.40;;;;;7.10;102113.00;;;;4914669;29;20611;-68
2022/04/30 05:14:32;;;;;;;10.73;4.33;;;;;7.20;102105.00;;;;4925319;28;20373;-69
2022/04/30 05:17:18;;;;;;;8.13;3.63;;;;;7.10;102112.00;;;;4910042;29;20384;-68
2022/04/30 05:20:07;;;;;;;9.20;4.47;;;;;7.40;102110.00;;;;4909189;29;20334;-67
2022/04/30 05:23:13;;;;;;;9.03;4.60;;;;;7.40;102109.00;;;;4901515;29;20261;-69
2022/04/30 05:26:00;;;;;;;7.13;4.40;;;;;7.30;102110.00;;;;4910153;29;20245;-69
2022/04/30 05:28:46;;;;;;;7.93;4.60;;;;;7.50;102109.00;;;;4910156;29;20238;-68
2022/04/30 05:31:32;;;;;;;8.50;4.37;;;;;7.50;102105.00;;;;4904709;29;20236;-68
2022/04/30 05:34:19;;;;;;;9.07;4.00;;;;;7.50;102112.00;;;;4902638;29;20924;-67
2022/04/30 05:37:07;;;;;;;9.47;4.63;;;;;7.50;102108.00;;;;4909923;29;20236;-67
2022/04/30 05:39:53;;;;;;;8.73;4.63;;;;;7.50;102112.00;;;;4910004;29;20249;-66
2022/04/30 05:42:40;;;;;;;8.70;4.40;;;;;7.70;102121.00;;;;4909987;29;20318;-68
2022/04/30 05:45:26;;;;;;;10.77;5.23;;;;;7.70;102109.00;;;;4903681;29;21014;-68
2022/04/30 05:48:12;;;;;;;9.37;4.93;;;;;7.70;102120.00;;;;4909634;29;20233;-68
2022/04/30 05:50:59;;;;;;;11.17;5.10;;;;;7.80;102113.00;;;;4909551;29;20245;-66
2022/04/30 05:53:46;;;;;;;7.30;4.37;;;;;7.80;102126.00;;;;4910118;29;20236;-67
2022/04/30 05:56:33;;;;;;;10.60;4.30;;;;;7.90;102120.00;;;;4904966;29;20233;-66
2022/04/30 05:59:19;;;;;;;9.30;4.93;;;;;8.00;102131.00;;;;4902432;29;20233;-67
2022/04/30 06:02:05;;;;;;;8.60;4.20;;;;;8.10;102126.00;;;;4909049;29;20738;-66
2022/04/30 06:04:55;;;;;;;8.10;4.50;;;;;8.10;102118.00;;;;4909542;29;20755;-67
2022/04/30 06:07:41;;;;;;;12.10;4.90;;;;;8.20;102127.00;;;;4909948;29;20232;-67
2022/04/30 06:10:29;;;;;;;9.77;5.00;;;;;8.00;102135.00;;;;4909426;29;20713;-66
2022/04/30 06:13:21;;;;;;;8.43;4.67;;;;;8.30;102134.00;;;;4925726;28;20244;-67
2022/04/30 06:16:08;;;;;;;9.00;4.07;;;;;8.40;102128.00;;;;4928139;28;20279;-68
2022/04/30 06:18:54;;;;;;;16.33;6.20;;;;;8.40;102138.00;;;;4927866;28;20291;-67
2022/04/30 06:21:57;;;;;;;12.43;4.90;;;;;8.50;102139.00;;;;4927519;28;20324;-68
2022/04/30 06:24:43;;;;;;;9.33;5.03;;;;;8.40;102128.00;;;;4928569;28;20238;-68
2022/04/30 06:27:32;;;;;;;9.83;5.13;;;;;8.50;102132.00;;;;4928277;28;20724;-67
2022/04/30 06:30:19;;;;;;;8.47;4.37;;;;;8.70;102133.00;;;;4901267;29;20366;-67
2022/04/30 06:33:08;;;;;;;12.47;4.83;;;;;8.60;102132.00;;;;4909138;29;20241;-68
2022/04/30 06:35:54;;;;;;;6.83;3.97;;;;;8.70;102128.00;;;;4915344;28;20244;-67
2022/04/30 06:38:40;;;;;;;7.87;4.23;;;;;8.70;102137.00;;;;4928372;28;20261;-67
2022/04/30 06:41:27;;;;;;;9.63;4.73;;;;;8.90;102136.00;;;;4901591;29;20241;-68
2022/04/30 06:44:14;;;;;;;10.97;4.93;;;;;9.00;102139.00;;;;4908620;29;20286;-67
2022/04/30 06:47:00;;;;;;;6.60;3.90;;;;;9.10;102133.00;;;;4909069;29;20734;-67
2022/04/30 06:49:46;;;;;;;11.07;4.93;;;;;9.30;102140.00;;;;4907134;29;20229;-68
2022/04/30 06:52:33;;;;;;;9.33;4.93;;;;;9.50;102144.00;;;;4902769;29;20324;-68
2022/04/30 06:58:23;;;;;;;9.50;5.30;;;;;9.60;102135.00;;;;4901619;29;20736;-68
2022/04/30 07:04:17;;;;;;;8.70;5.23;;;;;9.60;102134.00;;;;4908221;29;20812;-67
2022/04/30 07:07:04;;;;;;;10.30;5.30;;;;;9.60;102134.00;;;;4908633;29;20772;-65
2022/04/30 07:09:50;;;;;;;9.17;4.43;;;;;9.80;102114.00;;;;4909003;29;20245;-67
2022/04/30 07:12:36;;;;;;;10.20;5.20;;;;;9.80;102136.00;;;;4913877;28;20238;-68
2022/04/30 07:15:23;;;;;;;8.57;4.77;;;;;10.00;102144.00;;;;4922218;28;20314;-69
2022/04/30 07:18:11;;;;;;;9.00;5.30;;;;;10.00;102140.00;;;;4927387;28;21136;-68
2022/04/30 07:21:00;;;;;;;8.17;4.87;;;;;10.30;102138.00;;;;4927029;28;20627;-68
2022/04/30 07:23:46;;;;;;;11.60;5.40;;;;;10.50;102142.00;;;;4927555;28;20310;-69
2022/04/30 07:26:33;;;;;;;10.03;4.97;;;;;10.60;102139.00;;;;4903124;29;20238;-68
2022/04/30 07:29:19;;;;;;;7.87;4.90;;;;;10.60;102133.00;;;;4927164;28;20308;-68
2022/04/30 07:32:07;;;;;;;8.53;5.43;;;;;10.80;102132.00;;;;4927429;28;20962;-67
2022/04/30 07:34:56;;;;;;;9.70;4.77;;;;;10.80;102121.00;;;;4927326;28;20254;-67
2022/04/30 07:37:42;;;;;;;12.97;5.10;;;;;10.70;102135.00;;;;4905483;29;20236;-69
2022/04/30 07:40:28;;;;;;;8.33;4.53;;;;;10.50;102137.00;;;;4908068;29;20258;-66
2022/04/30 07:43:14;;;;;;;7.90;4.67;;;;;10.30;102130.00;;;;4908866;29;20238;-67
2022/04/30 07:46:00;;;;;;;6.80;4.33;;;;;10.60;102133.00;;;;4911974;29;20314;-65
2022/04/30 07:48:47;;;;;;;6.17;4.63;;;;;10.80;102134.00;;;;4912336;29;20236;-67
2022/04/30 07:51:41;;;;;;;10.70;4.63;;;;;11.00;102137.00;;;;4905565;29;20277;-69
2022/04/30 07:54:28;;;;;;;6.27;4.10;;;;;11.20;102128.00;;;;4905042;29;20774;-67
2022/04/30 07:57:14;;;;;;;9.13;4.67;;;;;11.50;102128.00;;;;4911781;29;20244;-68
2022/04/30 08:00:00;;;;;;;7.37;3.87;;;;;11.50;102133.00;;;;4911895;29;20246;-68
2022/04/30 08:02:47;;;;;;;6.13;4.13;;;;;11.40;102114.00;;;;4911387;29;20817;-67
2022/04/30 08:05:34;;;;;;;9.17;4.47;;;;;11.30;102120.00;;;;4905603;29;20288;-67
2022/04/30 08:08:22;;;;;;;5.57;3.60;;;;;11.70;102117.00;;;;4911183;29;20862;-67
2022/04/30 08:11:08;;;;;;;7.77;3.63;;;;;11.50;102113.00;;;;4911271;29;20234;-67
2022/04/30 08:13:54;;;;;;;7.13;3.90;;;;;11.60;102114.00;;;;4912058;29;20822;-68
2022/04/30 08:16:46;;;;;;;8.00;4.10;;;;;11.50;102118.00;;;;4911879;29;20237;-68
2022/04/30 08:19:32;;;;;;;6.30;4.13;;;;;11.40;102117.00;;;;4908570;29;20753;-65
2022/04/30 08:22:23;;;;;;;6.07;3.90;;;;;11.60;102112.00;;;;4910850;29;20230;-67
2022/04/30 08:25:10;;;;;;;7.10;3.80;;;;;11.80;102107.00;;;;4911620;29;20241;-67
2022/04/30 08:27:57;;;;;;;6.60;3.90;;;;;12.00;102110.00;;;;4911670;29;20617;-66
2022/04/30 08:30:43;;;;;;;5.93;3.90;;;;;12.00;102118.00;;;;4905996;29;20760;-67
2022/04/30 08:33:29;;;;;;;5.47;3.07;;;;;12.10;102125.00;;;;4904191;29;20316;-68
2022/04/30 08:36:17;;;;;;;4.03;3.07;;;;;12.20;102114.00;;;;4910723;29;20233;-68
2022/04/30 08:39:04;;;;;;;5.37;3.63;;;;;11.90;102106.00;;;;4910997;29;20228;-66
2022/04/30 08:41:51;;;;;;;4.17;3.17;;;;;11.90;102091.00;;;;4910796;29;20309;-67
2022/04/30 08:44:39;;;;;;;5.00;3.47;;;;;11.90;102108.00;;;;4905376;29;20343;-67
2022/04/30 08:47:26;;;;;;;5.00;3.27;;;;;12.20;102113.00;;;;4910682;29;20228;-67
2022/04/30 08:50:13;;;;;;;5.30;3.40;;;;;12.70;102108.00;;;;4910831;29;20237;-67
2022/04/30 08:52:59;;;;;;;5.37;2.93;;;;;13.00;102108.00;;;;4910935;29;20244;-67
2022/04/30 08:55:46;;;;;;;6.10;3.37;;;;;13.10;102106.00;;;;4907876;29;20261;-65
2022/04/30 08:58:34;;;;;;;4.50;3.03;;;;;13.30;102103.00;;;;4904292;29;20378;-67
2022/04/30 09:01:20;;;;;;;6.13;2.97;;;;;13.50;102103.00;;;;4910107;29;20232;-67
2022/04/30 09:04:06;;;;;;;6.77;3.50;;;;;13.50;102099.00;;;;4910910;29;20839;-67
2022/04/30 09:06:55;;;;;;;7.93;3.40;;;;;13.80;102098.00;;;;4911508;29;20233;-65
2022/04/30 09:09:41;;;;;;;7.90;3.40;;;;;14.00;102096.00;;;;4900651;29;20241;-68
2022/04/30 09:12:29;;;;;;;4.90;2.93;;;;;14.00;102091.00;;;;4903100;29;20237;-68
2022/04/30 09:15:16;;;;;;;4.27;2.70;;;;;14.00;102090.00;;;;4910295;29;20329;-67
2022/04/30 09:18:05;;;;;;;5.33;2.90;;;;;13.90;102095.00;;;;4908371;29;20334;-67
2022/04/30 09:20:54;;;;;;;5.07;3.40;;;;;13.80;102087.00;;;;4905748;29;20317;-67
2022/04/30 09:23:41;;;;;;;3.53;2.67;;;;;13.90;102088.00;;;;4910898;29;20727;-66
2022/04/30 09:26:27;;;;;;;7.47;3.23;;;;;14.00;102088.00;;;;4910124;29;20232;-67
2022/04/30 09:29:21;;;;;;;3.30;2.47;;;;;14.60;102087.00;;;;4909974;29;20304;-68
2022/04/30 09:32:16;;;;;;;5.23;3.13;;;;;14.60;102092.00;;;;4909995;29;20313;-67
2022/04/30 09:38:06;;;;;;;3.17;2.73;;;;;14.70;102082.00;;;;4907144;29;20228;-67
2022/04/30 09:40:53;;;;;;;4.20;2.60;;;;;14.50;102088.00;;;;4910479;29;20248;-68
2022/04/30 09:43:40;;;;;;;3.90;2.50;;;;;14.30;102084.00;;;;4904240;29;20242;-67
2022/04/30 09:46:27;;;;;;;2.93;2.27;;;;;14.40;102077.00;;;;4910154;29;20234;-66
2022/04/30 09:55:23;;;;;;;5.00;3.20;;;;;15.00;102074.00;;;;4909386;29;20264;-68
2022/04/30 09:58:10;;;;;;;6.03;3.10;;;;;14.80;102076.00;;;;4909654;29;20709;-63
2022/04/30 10:00:58;;;;;;;3.00;2.40;;;;;14.20;102083.00;;;;4909630;29;20230;-67
2022/04/30 10:03:46;;;;;;;2.93;2.43;;;;;14.30;102073.00;;;;4903809;29;20241;-67
2022/04/30 10:06:35;;;;;;;6.70;2.47;;;;;14.70;102060.00;;;;4901774;29;20236;-68
2022/04/30 10:09:23;;;;;;;3.83;3.10;;;;;14.90;102069.00;;;;4909087;29;20305;-67
2022/04/30 10:12:17;;;;;;;4.60;2.57;;;;;14.90;102077.00;;;;4908988;29;20242;-68
2022/04/30 10:15:15;;;;;;;2.50;1.80;;;;;15.00;102066.00;;;;4909311;29;20833;-67
2022/04/30 10:18:01;;;;;;;4.17;2.20;;;;;15.00;102061.00;;;;4909692;29;20718;-67
2022/04/30 10:20:51;;;;;;;3.13;2.53;;;;;15.10;102058.00;;;;4903823;29;20234;-67
2022/04/30 10:23:39;;;;;;;2.57;2.10;;;;;15.40;102058.00;;;;4909796;29;20316;-64
2022/04/30 10:26:29;;;;;;;2.30;2.10;;;;;15.60;102047.00;;;;4909273;29;20722;-68
2022/04/30 10:29:15;;;;;;;4.07;2.57;;;;;16.00;102052.00;;;;4909066;29;20242;-67
2022/04/30 10:32:02;;;;;;;3.27;2.37;;;;;16.10;102051.00;;;;4909170;29;20237;-68
2022/04/30 10:34:52;;;;;;;3.70;2.57;;;;;16.00;102040.00;;;;4908395;29;20721;-67
2022/04/30 10:37:39;;;;;;;3.60;2.23;;;;;16.00;102039.00;;;;4902410;29;20965;-68
2022/04/30 10:40:39;;;;;;;2.83;2.20;;;;;15.90;102036.00;;;;4908842;29;20245;-67
2022/04/30 10:43:28;;;;;;;3.93;2.50;;;;;16.20;102035.00;;;;4908486;29;20252;-68
2022/04/30 10:46:23;;;;;;;3.07;2.03;;;;;16.50;102031.00;;;;4908619;29;20248;-68
2022/04/30 10:49:10;;;;;;;2.57;2.37;;;;;16.90;102036.00;;;;4909078;29;20239;-68
2022/04/30 10:51:56;;;;;;;5.17;2.50;;;;;17.40;102036.00;;;;4908684;29;20243;-68
2022/04/30 10:54:43;;;;;;;5.67;2.50;;;;;17.30;102022.00;;;;4902856;29;20240;-65
2022/04/30 10:57:41;;;;;;;3.13;2.23;;;;;17.50;102020.00;;;;4909017;29;20312;-67
2022/04/30 11:00:27;;;;;;;3.50;2.30;;;;;17.70;102034.00;;;;4907826;29;20298;-67
2022/04/30 11:03:14;;;;;;;3.13;2.40;;;;;17.80;102027.00;;;;4908253;29;20240;-66
2022/04/30 11:06:00;;;;;;;3.00;2.27;;;;;17.50;102030.00;;;;4909261;29;20241;-68
2022/04/30 11:08:56;;;;;;;3.50;2.53;;;;;17.40;102025.00;;;;4902730;29;20229;-66
2022/04/30 11:11:46;;;;;;;3.37;2.53;;;;;16.80;102021.00;;;;4901900;29;20244;-67
2022/04/30 11:14:34;;;;;;;3.77;2.53;;;;;16.90;102009.00;;;;4908509;29;20300;-67
2022/04/30 11:17:21;;;;;;;3.57;2.63;;;;;17.10;102011.00;;;;4909614;29;20286;-64
2022/04/30 11:20:08;;;;;;;2.90;2.50;;;;;17.20;102011.00;;;;4909129;29;20634;-66
2022/04/30 11:22:55;;;;;;;4.27;2.40;;;;;16.80;102014.00;;;;4912748;29;20971;-67
2022/04/30 11:25:41;;;;;;;3.53;2.50;;;;;16.40;102003.00;;;;4906145;29;20725;-67
2022/04/30 11:28:31;;;;;;;3.13;2.30;;;;;16.60;102006.00;;;;4912548;29;20266;-67
2022/04/30 11:31:21;;;;;;;3.83;2.40;;;;;16.10;102000.00;;;;4912123;29;20233;-67
2022/04/30 11:34:08;;;;;;;2.93;2.43;;;;;16.30;102002.00;;;;4912898;29;20245;-66
2022/04/30 11:36:57;;;;;;;3.17;2.43;;;;;16.80;101992.00;;;;4907539;29;20797;-67
2022/04/30 11:39:43;;;;;;;3.13;2.47;;;;;17.60;101995.00;;;;4912816;29;20233;-67
2022/04/30 11:42:30;;;;;;;3.10;2.47;;;;;18.00;101988.00;;;;4910384;29;20249;-65
2022/04/30 11:45:24;;;;;;;4.07;2.37;;;;;17.70;101987.00;;;;4911782;29;20233;-68
2022/04/30 11:48:11;;;;;;;3.73;2.30;;;;;17.10;101993.00;;;;4912334;29;20241;-67
2022/04/30 11:50:58;;;;;;;4.03;2.50;;;;;16.40;101992.00;;;;4911538;29;20489;-68
2022/04/30 11:53:44;;;;;;;4.50;2.77;;;;;16.00;101988.00;;;;4905337;29;20308;-68
2022/04/30 11:56:32;;;;;;;4.87;2.43;;;;;15.60;101974.00;;;;4912253;29;20902;-66
2022/04/30 11:59:29;;;;;;;3.00;2.10;;;;;16.30;101985.00;;;;4926393;28;20337;-67
2022/04/30 12:02:16;;;;;;;4.13;2.13;;;;;16.90;101967.00;;;;4930024;28;20371;-67
2022/04/30 12:05:05;;;;;;;2.60;2.17;;;;;17.60;101978.00;;;;4931157;28;20278;-68
2022/04/30 12:08:01;;;;;;;3.60;2.17;;;;;17.90;101970.00;;;;4931164;28;20240;-67
2022/04/30 12:10:55;;;;;;;4.40;2.40;;;;;17.40;101958.00;;;;4905110;29;20651;-67
2022/04/30 12:13:44;;;;;;;3.33;2.30;;;;;17.00;101979.00;;;;4904882;29;20233;-68
2022/04/30 12:16:36;;;;;;;5.10;2.30;;;;;16.40;101978.00;;;;4912035;29;20233;-68
2022/04/30 12:25:40;;;;;;;2.70;2.00;;;;;15.70;101969.00;;;;4911752;29;20236;-67
2022/04/30 12:28:26;;;;;;;2.63;2.00;;;;;15.70;101966.00;;;;4910949;29;20239;-67
2022/04/30 12:31:12;;;;;;;2.80;2.10;;;;;16.40;101958.00;;;;4930285;28;20241;-67
2022/04/30 12:33:59;;;;;;;2.57;2.10;;;;;16.60;101961.00;;;;4906081;29;20257;-67
2022/04/30 12:36:51;;;;;;;3.73;2.70;;;;;17.30;101954.00;;;;4904226;29;20284;-65
2022/04/30 12:39:40;;;;;;;3.53;2.30;;;;;18.30;101943.00;;;;4911356;29;20366;-67
2022/04/30 12:42:27;;;;;;;3.30;1.97;;;;;18.60;101945.00;;;;4910574;29;20246;-65
2022/04/30 12:45:13;;;;;;;3.17;1.70;;;;;19.00;101940.00;;;;4911210;29;20373;-68
2022/04/30 12:48:01;;;;;;;2.60;2.10;;;;;18.20;101948.00;;;;4906046;29;20240;-67
2022/04/30 12:50:47;;;;;;;3.07;1.80;;;;;17.50;101944.00;;;;4908789;29;20237;-67
2022/04/30 12:53:33;;;;;;;2.03;1.73;;;;;17.30;101937.00;;;;4911081;29;20320;-66
2022/04/30 12:56:23;;;;;;;1.93;1.77;;;;;17.10;101947.00;;;;4910826;29;20241;-65
2022/04/30 12:59:09;;;;;;;2.50;2.00;;;;;16.90;101939.00;;;;4911200;29;20772;-66
2022/04/30 13:01:55;;;;;;;2.13;1.80;;;;;16.70;101944.00;;;;4904583;29;20809;-67
2022/04/30 13:04:42;;;;;;;1.83;1.60;;;;;16.60;101935.00;;;;4910706;29;20337;-69
2022/04/30 13:07:28;;;;;;;1.87;1.53;;;;;17.00;101928.00;;;;4910267;29;20703;-68
2022/04/30 13:13:31;;;;;;;1.60;1.50;;;;;18.50;101921.00;;;;4925579;28;20747;-67
2022/04/30 13:16:18;;;;;;;2.43;1.47;;;;;18.70;101921.00;;;;4929262;28;20279;-67
2022/04/30 13:19:05;;;;;;;1.93;1.40;;;;;18.60;101905.00;;;;4929942;28;20232;-68
2022/04/30 13:21:52;;;;;;;1.70;1.30;;;;;19.50;101901.00;;;;4922776;28;20308;-67
2022/04/30 13:24:38;;;;;;;1.50;1.37;;;;;19.30;101908.00;;;;4929774;28;20240;-66
2022/04/30 13:27:24;;;;;;;2.27;1.50;;;;;18.80;101916.00;;;;4928431;28;20237;-69
2022/04/30 13:30:15;;;;;;;1.80;1.50;;;;;18.30;101911.00;;;;4914626;28;20265;-68
2022/04/30 13:33:01;;;;;;;2.87;1.40;;;;;17.70;101903.00;;;;4905058;29;20241;-68
2022/04/30 13:35:47;;;;;;;4.43;2.00;;;;;18.60;101900.00;;;;4915343;28;20240;-67
2022/04/30 13:38:34;;;;;;;2.03;1.53;;;;;19.20;101898.00;;;;4929131;28;20240;-68
2022/04/30 13:41:21;;;;;;;1.73;1.53;;;;;19.60;101903.00;;;;4927372;28;20368;-68
2022/04/30 13:44:09;;;;;;;2.53;1.37;;;;;19.20;101895.00;;;;4929210;28;20236;-68
2022/04/30 13:46:56;;;;;;;1.40;1.30;;;;;18.60;101902.00;;;;4906029;29;20230;-67
2022/04/30 13:49:44;;;;;;;3.27;2.30;;;;;18.10;101894.00;;;;4910031;29;20335;-69
2022/04/30 13:52:31;;;;;;;2.40;1.40;;;;;17.80;101892.00;;;;4909375;29;20269;-68
2022/04/30 13:55:17;;;;;;;1.73;1.30;;;;;17.50;101890.00;;;;4909981;29;20602;-67
2022/04/30 13:58:04;;;;;;;3.47;1.20;;;;;18.20;101894.00;;;;4904658;29;20288;-67
2022/04/30 14:00:50;;;;;;;3.43;1.50;;;;;18.60;101890.00;;;;4902531;29;20656;-68
2022/04/30 14:03:38;;;;;;;1.67;1.57;;;;;18.10;101881.00;;;;4909557;29;20314;-68
2022/04/30 14:06:24;;;;;;;4.83;1.50;;;;;17.70;101886.00;;;;4909519;29;20233;-68
2022/04/30 14:09:11;;;;;;;1.70;1.37;;;;;17.60;101884.00;;;;4910211;29;20241;-68
2022/04/30 14:11:57;;;;;;;1.40;1.30;;;;;17.30;101872.00;;;;4908841;28;20952;-64
2022/04/30 14:14:57;;;;;;;3.17;1.63;;;;;17.20;101880.00;;;;4924546;28;20232;-67
2022/04/30 14:20:50;;;;;;;2.27;1.30;;;;;16.70;101865.00;;;;4903925;29;20232;-67
2022/04/30 14:23:37;;;;;;;1.90;1.30;;;;;16.60;101877.00;;;;4909451;29;20240;-67
2022/04/30 14:26:26;;;;;;;1.63;1.53;;;;;16.70;101864.00;;;;4908929;29;20348;-66
2022/04/30 14:29:12;;;;;;;2.50;1.60;;;;;16.60;101875.00;;;;4909616;29;20714;-69
2022/04/30 14:31:58;;;;;;;2.57;1.80;;;;;17.00;101861.00;;;;4902953;29;20773;-67
2022/04/30 14:34:44;;;;;;;3.33;2.53;;;;;16.70;101872.00;;;;4910478;28;20239;-67
2022/04/30 14:37:33;;;;;;;3.27;2.30;;;;;16.70;101874.00;;;;4928202;28;20668;-64
2022/04/30 14:40:20;;;;;;;5.60;2.80;;;;;17.00;101883.00;;;;4928102;28;20260;-67
2022/04/30 14:43:08;;;;;;;4.50;3.17;;;;;17.10;101877.00;;;;4906676;28;20312;-66